sensor_id;sensor_type;location;lat;lon;timestamp;temperature;humidity
5415;DHT22;2730;51.512;7.504;2024-01-30T00:01:35;7.50;1.00
5415;DHT22;2730;51.512;7.504;2024-01-30T00:04:05;7.40;1.00
5415;DHT22;2730;51.512;7.504;2024-01-30T00:06:33;7.40;1.00
5415;DHT22;2730;51.512;7.504;2024-01-30T00:09:00;7.40;1.00
5415;DHT22;2730;51.512;7.504;2024-01-30T00:11:27;7.40;1.00
5415;DHT22;2730;51.512;7.504;2024-01-30T00:13:56;7.30;1.00
5415;DHT22;2730;51.512;7.504;2024-01-30T00:16:24;7.30;1.00
5415;DHT22;2730;51.512;7.504;2024-01-30T00:18:51;7.30;1.00
5415;DHT22;2730;51.512;7.504;2024-01-30T00:21:17;7.30;1.00
5415;DHT22;2730;51.512;7.504;2024-01-30T00:23:44;7.20;12.50
5415;DHT22;2730;51.512;7.504;2024-01-30T00:26:11;7.10;72.40
5415;DHT22;2730;51.512;7.504;2024-01-30T00:28:38;7.10;99.90
5415;DHT22;2730;51.512;7.504;2024-01-30T00:31:06;7.10;99.90
5415;DHT22;2730;51.512;7.504;2024-01-30T00:33:34;7.10;99.90
5415;DHT22;2730;51.512;7.504;2024-01-30T00:36:01;7.10;99.90
5415;DHT22;2730;51.512;7.504;2024-01-30T00:38:28;7.10;99.90
5415;DHT22;2730;51.512;7.504;2024-01-30T00:40:55;7.00;99.90
5415;DHT22;2730;51.512;7.504;2024-01-30T00:43:22;7.00;99.90
5415;DHT22;2730;51.512;7.504;2024-01-30T00:45:51;7.00;99.90
5415;DHT22;2730;51.512;7.504;2024-01-30T00:48:19;7.00;99.90
5415;DHT22;2730;51.512;7.504;2024-01-30T00:50:46;7.00;99.90
5415;DHT22;2730;51.512;7.504;2024-01-30T00:53:14;7.00;99.90
5415;DHT22;2730;51.512;7.504;2024-01-30T00:55:42;6.90;99.90
5415;DHT22;2730;51.512;7.504;2024-01-30T00:58:09;6.90;99.90
5415;DHT22;2730;51.512;7.504;2024-01-30T01:00:35;6.90;99.90
5415;DHT22;2730;51.512;7.504;2024-01-30T01:03:03;6.90;99.90
5415;DHT22;2730;51.512;7.504;2024-01-30T01:05:31;6.90;99.90
5415;DHT22;2730;51.512;7.504;2024-01-30T01:07:58;6.90;99.90
5415;DHT22;2730;51.512;7.504;2024-01-30T01:10:24;6.90;99.90
5415;DHT22;2730;51.512;7.504;2024-01-30T01:12:53;7.00;99.90
5415;DHT22;2730;51.512;7.504;2024-01-30T01:15:19;7.00;99.90
5415;DHT22;2730;51.512;7.504;2024-01-30T01:17:46;6.90;99.90
5415;DHT22;2730;51.512;7.504;2024-01-30T01:20:13;6.90;99.90
5415;DHT22;2730;51.512;7.504;2024-01-30T01:22:41;7.00;99.90
5415;DHT22;2730;51.512;7.504;2024-01-30T01:25:10;7.00;99.90
5415;DHT22;2730;51.512;7.504;2024-01-30T01:27:37;7.00;99.90
5415;DHT22;2730;51.512;7.504;2024-01-30T01:30:08;7.00;99.90
5415;DHT22;2730;51.512;7.504;2024-01-30T01:32:35;7.10;99.90
5415;DHT22;2730;51.512;7.504;2024-01-30T01:35:04;7.10;99.90
5415;DHT22;2730;51.512;7.504;2024-01-30T01:37:45;7.20;23.30
5415;DHT22;2730;51.512;7.504;2024-01-30T01:40:13;7.20;45.60
5415;DHT22;2730;51.512;7.504;2024-01-30T01:42:42;7.10;15.60
5415;DHT22;2730;51.512;7.504;2024-01-30T01:45:09;7.00;94.60
5415;DHT22;2730;51.512;7.504;2024-01-30T01:47:36;7.10;99.90
5415;DHT22;2730;51.512;7.504;2024-01-30T01:50:03;7.00;99.90
5415;DHT22;2730;51.512;7.504;2024-01-30T01:52:31;7.10;99.90
5415;DHT22;2730;51.512;7.504;2024-01-30T01:55:00;7.10;99.90
5415;DHT22;2730;51.512;7.504;2024-01-30T01:57:27;7.10;99.90
5415;DHT22;2730;51.512;7.504;2024-01-30T01:59:53;7.20;99.90
5415;DHT22;2730;51.512;7.504;2024-01-30T02:02:20;7.20;59.70
5415;DHT22;2730;51.512;7.504;2024-01-30T02:04:50;7.10;15.40
5415;DHT22;2730;51.512;7.504;2024-01-30T02:07:17;7.10;38.30
5415;DHT22;2730;51.512;7.504;2024-01-30T02:09:44;7.10;99.90
5415;DHT22;2730;51.512;7.504;2024-01-30T02:12:12;7.20;80.20
5415;DHT22;2730;51.512;7.504;2024-01-30T02:14:45;7.10;1.00
5415;DHT22;2730;51.512;7.504;2024-01-30T02:17:12;7.10;10.20
5415;DHT22;2730;51.512;7.504;2024-01-30T02:19:41;7.10;68.80
5415;DHT22;2730;51.512;7.504;2024-01-30T02:22:10;7.20;99.90
5415;DHT22;2730;51.512;7.504;2024-01-30T02:24:37;7.20;1.00
5415;DHT22;2730;51.512;7.504;2024-01-30T02:27:04;7.10;8.50
5415;DHT22;2730;51.512;7.504;2024-01-30T02:29:32;7.10;47.60
5415;DHT22;2730;51.512;7.504;2024-01-30T02:32:01;7.00;99.90
5415;DHT22;2730;51.512;7.504;2024-01-30T02:34:27;7.10;99.90
5415;DHT22;2730;51.512;7.504;2024-01-30T02:36:54;7.20;99.90
5415;DHT22;2730;51.512;7.504;2024-01-30T02:39:22;7.30;91.40
5415;DHT22;2730;51.512;7.504;2024-01-30T02:41:49;7.20;1.00
5415;DHT22;2730;51.512;7.504;2024-01-30T02:44:16;7.20;29.30
5415;DHT22;2730;51.512;7.504;2024-01-30T02:46:45;7.20;1.00
5415;DHT22;2730;51.512;7.504;2024-01-30T02:49:12;7.20;37.90
5415;DHT22;2730;51.512;7.504;2024-01-30T02:51:41;7.20;23.80
5415;DHT22;2730;51.512;7.504;2024-01-30T02:54:07;7.20;2.70
5415;DHT22;2730;51.512;7.504;2024-01-30T02:56:36;7.20;4.60
5415;DHT22;2730;51.512;7.504;2024-01-30T02:59:04;7.10;30.80
5415;DHT22;2730;51.512;7.504;2024-01-30T03:01:31;7.10;84.10
5415;DHT22;2730;51.512;7.504;2024-01-30T03:03:58;7.10;99.90
5415;DHT22;2730;51.512;7.504;2024-01-30T03:06:25;7.10;90.00
5415;DHT22;2730;51.512;7.504;2024-01-30T03:08:52;7.10;86.90
5415;DHT22;2730;51.512;7.504;2024-01-30T03:11:18;7.10;67.30
5415;DHT22;2730;51.512;7.504;2024-01-30T03:13:49;7.10;99.90
5415;DHT22;2730;51.512;7.504;2024-01-30T03:16:16;7.20;20.00
5415;DHT22;2730;51.512;7.504;2024-01-30T03:18:43;7.30;9.80
5415;DHT22;2730;51.512;7.504;2024-01-30T03:21:11;7.30;1.00
5415;DHT22;2730;51.512;7.504;2024-01-30T03:23:38;7.40;1.00
5415;DHT22;2730;51.512;7.504;2024-01-30T03:26:04;7.40;1.00
5415;DHT22;2730;51.512;7.504;2024-01-30T03:28:32;7.40;1.00
5415;DHT22;2730;51.512;7.504;2024-01-30T03:31:00;7.40;1.00
5415;DHT22;2730;51.512;7.504;2024-01-30T03:33:27;7.50;1.00
5415;DHT22;2730;51.512;7.504;2024-01-30T03:35:54;7.50;1.00
5415;DHT22;2730;51.512;7.504;2024-01-30T03:38:21;7.50;1.00
5415;DHT22;2730;51.512;7.504;2024-01-30T03:40:47;7.40;1.00
5415;DHT22;2730;51.512;7.504;2024-01-30T03:43:14;7.50;1.00
5415;DHT22;2730;51.512;7.504;2024-01-30T03:45:42;7.40;1.00
5415;DHT22;2730;51.512;7.504;2024-01-30T03:48:13;7.50;1.00
5415;DHT22;2730;51.512;7.504;2024-01-30T03:50:39;7.50;1.00
5415;DHT22;2730;51.512;7.504;2024-01-30T03:53:06;7.50;1.00
5415;DHT22;2730;51.512;7.504;2024-01-30T03:55:33;7.70;99.90
5415;DHT22;2730;51.512;7.504;2024-01-30T03:58:00;7.70;1.00
5415;DHT22;2730;51.512;7.504;2024-01-30T04:00:27;7.80;1.00
5415;DHT22;2730;51.512;7.504;2024-01-30T04:02:56;7.60;1.00
5415;DHT22;2730;51.512;7.504;2024-01-30T04:05:24;7.60;1.00
5415;DHT22;2730;51.512;7.504;2024-01-30T04:07:52;7.60;1.00
5415;DHT22;2730;51.512;7.504;2024-01-30T04:10:19;7.50;1.00
5415;DHT22;2730;51.512;7.504;2024-01-30T04:12:46;7.40;99.90
5415;DHT22;2730;51.512;7.504;2024-01-30T04:15:13;7.50;99.90
5415;DHT22;2730;51.512;7.504;2024-01-30T04:17:41;7.50;99.90
5415;DHT22;2730;51.512;7.504;2024-01-30T04:20:13;7.40;99.90
5415;DHT22;2730;51.512;7.504;2024-01-30T04:22:41;7.40;99.90
5415;DHT22;2730;51.512;7.504;2024-01-30T04:25:08;7.30;99.90
5415;DHT22;2730;51.512;7.504;2024-01-30T04:27:35;7.30;1.00
5415;DHT22;2730;51.512;7.504;2024-01-30T04:30:02;7.30;1.00
5415;DHT22;2730;51.512;7.504;2024-01-30T04:32:29;7.20;1.00
5415;DHT22;2730;51.512;7.504;2024-01-30T04:34:57;7.20;1.00
5415;DHT22;2730;51.512;7.504;2024-01-30T04:37:26;7.10;1.00
5415;DHT22;2730;51.512;7.504;2024-01-30T04:39:56;7.10;1.00
5415;DHT22;2730;51.512;7.504;2024-01-30T04:42:23;7.20;1.00
5415;DHT22;2730;51.512;7.504;2024-01-30T04:44:50;7.20;1.00
5415;DHT22;2730;51.512;7.504;2024-01-30T04:47:20;7.20;1.00
5415;DHT22;2730;51.512;7.504;2024-01-30T04:49:48;7.20;1.00
5415;DHT22;2730;51.512;7.504;2024-01-30T04:52:16;7.10;1.00
5415;DHT22;2730;51.512;7.504;2024-01-30T04:54:42;7.10;1.00
5415;DHT22;2730;51.512;7.504;2024-01-30T04:57:12;7.30;1.00
5415;DHT22;2730;51.512;7.504;2024-01-30T04:59:38;7.20;1.00
5415;DHT22;2730;51.512;7.504;2024-01-30T05:02:06;7.20;1.00
5415;DHT22;2730;51.512;7.504;2024-01-30T05:04:33;7.20;1.00
5415;DHT22;2730;51.512;7.504;2024-01-30T05:07:01;7.10;1.00
5415;DHT22;2730;51.512;7.504;2024-01-30T05:09:28;7.00;1.00
5415;DHT22;2730;51.512;7.504;2024-01-30T05:11:55;6.90;62.00
5415;DHT22;2730;51.512;7.504;2024-01-30T05:14:26;6.90;99.90
5415;DHT22;2730;51.512;7.504;2024-01-30T05:16:53;6.90;99.90
5415;DHT22;2730;51.512;7.504;2024-01-30T05:19:19;6.90;99.90
5415;DHT22;2730;51.512;7.504;2024-01-30T05:21:48;6.90;99.90
5415;DHT22;2730;51.512;7.504;2024-01-30T05:24:15;6.90;99.90
5415;DHT22;2730;51.512;7.504;2024-01-30T05:26:42;6.80;99.90
5415;DHT22;2730;51.512;7.504;2024-01-30T05:29:09;6.80;99.90
5415;DHT22;2730;51.512;7.504;2024-01-30T05:31:37;6.80;99.90
5415;DHT22;2730;51.512;7.504;2024-01-30T05:34:04;6.70;99.90
5415;DHT22;2730;51.512;7.504;2024-01-30T05:36:32;6.70;99.90
5415;DHT22;2730;51.512;7.504;2024-01-30T05:39:00;6.70;99.90
5415;DHT22;2730;51.512;7.504;2024-01-30T05:41:26;6.70;99.90
5415;DHT22;2730;51.512;7.504;2024-01-30T05:43:53;6.70;99.90
5415;DHT22;2730;51.512;7.504;2024-01-30T05:46:20;6.70;99.90
5415;DHT22;2730;51.512;7.504;2024-01-30T05:48:49;6.80;99.90
5415;DHT22;2730;51.512;7.504;2024-01-30T05:51:15;6.80;99.90
5415;DHT22;2730;51.512;7.504;2024-01-30T05:53:43;6.80;99.90
5415;DHT22;2730;51.512;7.504;2024-01-30T05:56:10;6.90;99.90
5415;DHT22;2730;51.512;7.504;2024-01-30T05:58:37;6.90;99.90
5415;DHT22;2730;51.512;7.504;2024-01-30T06:01:06;6.90;99.90
5415;DHT22;2730;51.512;7.504;2024-01-30T06:03:33;6.80;99.90
5415;DHT22;2730;51.512;7.504;2024-01-30T06:06:03;6.80;99.90
5415;DHT22;2730;51.512;7.504;2024-01-30T06:08:30;6.80;99.90
5415;DHT22;2730;51.512;7.504;2024-01-30T06:10:56;6.90;99.90
5415;DHT22;2730;51.512;7.504;2024-01-30T06:13:23;6.90;99.90
5415;DHT22;2730;51.512;7.504;2024-01-30T06:15:50;7.00;99.90
5415;DHT22;2730;51.512;7.504;2024-01-30T06:18:17;7.00;99.90
5415;DHT22;2730;51.512;7.504;2024-01-30T06:20:43;6.90;99.90
5415;DHT22;2730;51.512;7.504;2024-01-30T06:23:11;6.80;99.90
5415;DHT22;2730;51.512;7.504;2024-01-30T06:25:40;6.90;99.90
5415;DHT22;2730;51.512;7.504;2024-01-30T06:28:07;7.00;99.90
5415;DHT22;2730;51.512;7.504;2024-01-30T06:30:37;7.00;99.90
5415;DHT22;2730;51.512;7.504;2024-01-30T06:33:04;7.20;99.90
5415;DHT22;2730;51.512;7.504;2024-01-30T06:35:32;7.20;99.90
5415;DHT22;2730;51.512;7.504;2024-01-30T06:38:00;7.20;99.90
5415;DHT22;2730;51.512;7.504;2024-01-30T06:40:30;7.20;99.90
5415;DHT22;2730;51.512;7.504;2024-01-30T06:42:58;7.20;99.90
5415;DHT22;2730;51.512;7.504;2024-01-30T06:45:26;7.20;99.90
5415;DHT22;2730;51.512;7.504;2024-01-30T06:47:53;7.30;99.90
5415;DHT22;2730;51.512;7.504;2024-01-30T06:50:20;7.30;99.90
5415;DHT22;2730;51.512;7.504;2024-01-30T06:52:47;7.30;99.90
5415;DHT22;2730;51.512;7.504;2024-01-30T06:55:14;7.20;99.90
5415;DHT22;2730;51.512;7.504;2024-01-30T06:57:42;7.20;99.90
5415;DHT22;2730;51.512;7.504;2024-01-30T07:00:10;7.20;99.90
5415;DHT22;2730;51.512;7.504;2024-01-30T07:02:39;7.20;99.90
5415;DHT22;2730;51.512;7.504;2024-01-30T07:05:06;7.30;99.90
5415;DHT22;2730;51.512;7.504;2024-01-30T07:07:33;7.30;99.90
5415;DHT22;2730;51.512;7.504;2024-01-30T07:10:01;7.40;99.90
5415;DHT22;2730;51.512;7.504;2024-01-30T07:12:27;7.50;69.90
5415;DHT22;2730;51.512;7.504;2024-01-30T07:14:56;7.50;20.20
5415;DHT22;2730;51.512;7.504;2024-01-30T07:17:25;7.60;1.00
5415;DHT22;2730;51.512;7.504;2024-01-30T07:19:59;7.60;1.00
5415;DHT22;2730;51.512;7.504;2024-01-30T07:22:29;7.70;1.00
5415;DHT22;2730;51.512;7.504;2024-01-30T07:24:57;7.70;1.00
5415;DHT22;2730;51.512;7.504;2024-01-30T07:27:23;7.70;1.00
5415;DHT22;2730;51.512;7.504;2024-01-30T07:29:50;7.70;1.00
5415;DHT22;2730;51.512;7.504;2024-01-30T07:32:19;7.80;1.00
5415;DHT22;2730;51.512;7.504;2024-01-30T07:34:45;7.90;1.00
5415;DHT22;2730;51.512;7.504;2024-01-30T07:37:12;7.80;99.90
5415;DHT22;2730;51.512;7.504;2024-01-30T07:39:41;7.90;99.90
5415;DHT22;2730;51.512;7.504;2024-01-30T07:42:09;7.90;99.90
5415;DHT22;2730;51.512;7.504;2024-01-30T07:44:36;7.80;99.90
5415;DHT22;2730;51.512;7.504;2024-01-30T07:47:03;8.00;99.90
5415;DHT22;2730;51.512;7.504;2024-01-30T07:49:32;8.00;99.90
5415;DHT22;2730;51.512;7.504;2024-01-30T07:52:01;8.10;99.90
5415;DHT22;2730;51.512;7.504;2024-01-30T07:54:31;8.20;99.90
5415;DHT22;2730;51.512;7.504;2024-01-30T08:03:42;8.50;99.90
5415;DHT22;2730;51.512;7.504;2024-01-30T08:06:11;8.60;1.00
5415;DHT22;2730;51.512;7.504;2024-01-30T08:08:38;8.70;99.90
5415;DHT22;2730;51.512;7.504;2024-01-30T08:11:05;8.70;99.90
5415;DHT22;2730;51.512;7.504;2024-01-30T08:13:33;8.70;1.00
5415;DHT22;2730;51.512;7.504;2024-01-30T08:15:59;8.90;1.00
5415;DHT22;2730;51.512;7.504;2024-01-30T08:18:26;9.00;1.00
5415;DHT22;2730;51.512;7.504;2024-01-30T08:20:53;9.10;99.90
5415;DHT22;2730;51.512;7.504;2024-01-30T08:23:21;9.20;99.90
5415;DHT22;2730;51.512;7.504;2024-01-30T08:25:48;9.30;94.20
5415;DHT22;2730;51.512;7.504;2024-01-30T08:28:14;9.40;1.00
5415;DHT22;2730;51.512;7.504;2024-01-30T08:30:42;9.50;1.00
5415;DHT22;2730;51.512;7.504;2024-01-30T08:33:12;9.60;99.90
5415;DHT22;2730;51.512;7.504;2024-01-30T08:35:38;9.70;99.90
5415;DHT22;2730;51.512;7.504;2024-01-30T08:38:05;9.70;87.70
5415;DHT22;2730;51.512;7.504;2024-01-30T08:40:34;9.70;9.70
5415;DHT22;2730;51.512;7.504;2024-01-30T08:43:01;9.70;1.00
5415;DHT22;2730;51.512;7.504;2024-01-30T08:45:29;9.80;1.00
5415;DHT22;2730;51.512;7.504;2024-01-30T08:47:57;9.80;1.00
5415;DHT22;2730;51.512;7.504;2024-01-30T08:50:24;9.80;1.00
5415;DHT22;2730;51.512;7.504;2024-01-30T08:52:51;9.80;1.00
5415;DHT22;2730;51.512;7.504;2024-01-30T08:55:17;9.80;1.00
5415;DHT22;2730;51.512;7.504;2024-01-30T08:57:46;9.80;1.00
5415;DHT22;2730;51.512;7.504;2024-01-30T09:00:15;9.80;1.00
5415;DHT22;2730;51.512;7.504;2024-01-30T09:02:46;9.90;1.00
5415;DHT22;2730;51.512;7.504;2024-01-30T09:05:14;10.00;1.00
5415;DHT22;2730;51.512;7.504;2024-01-30T09:07:40;10.00;1.00
5415;DHT22;2730;51.512;7.504;2024-01-30T09:10:08;10.10;1.00
5415;DHT22;2730;51.512;7.504;2024-01-30T09:12:34;10.20;99.90
5415;DHT22;2730;51.512;7.504;2024-01-30T09:15:04;10.40;99.90
5415;DHT22;2730;51.512;7.504;2024-01-30T09:17:31;10.50;58.60
5415;DHT22;2730;51.512;7.504;2024-01-30T09:20:00;10.50;1.00
5415;DHT22;2730;51.512;7.504;2024-01-30T09:22:28;10.60;1.00
5415;DHT22;2730;51.512;7.504;2024-01-30T09:24:56;10.70;1.00
5415;DHT22;2730;51.512;7.504;2024-01-30T09:27:27;10.80;1.00
5415;DHT22;2730;51.512;7.504;2024-01-30T09:29:55;10.80;99.90
5415;DHT22;2730;51.512;7.504;2024-01-30T09:32:24;10.90;99.90
5415;DHT22;2730;51.512;7.504;2024-01-30T09:34:51;10.90;99.90
5415;DHT22;2730;51.512;7.504;2024-01-30T09:37:18;11.00;99.90
5415;DHT22;2730;51.512;7.504;2024-01-30T09:39:46;11.10;99.90
5415;DHT22;2730;51.512;7.504;2024-01-30T09:42:29;11.10;99.90
5415;DHT22;2730;51.512;7.504;2024-01-30T09:45:01;11.30;99.90
5415;DHT22;2730;51.512;7.504;2024-01-30T09:47:36;11.40;99.90
5415;DHT22;2730;51.512;7.504;2024-01-30T09:50:08;11.40;64.80
5415;DHT22;2730;51.512;7.504;2024-01-30T09:52:35;11.50;66.90
5415;DHT22;2730;51.512;7.504;2024-01-30T09:55:02;11.50;44.30
5415;DHT22;2730;51.512;7.504;2024-01-30T09:57:29;11.60;1.00
5415;DHT22;2730;51.512;7.504;2024-01-30T09:59:57;11.60;1.00
5415;DHT22;2730;51.512;7.504;2024-01-30T10:02:24;11.70;1.00
5415;DHT22;2730;51.512;7.504;2024-01-30T10:04:52;11.70;1.00
5415;DHT22;2730;51.512;7.504;2024-01-30T10:07:19;11.70;1.00
5415;DHT22;2730;51.512;7.504;2024-01-30T10:09:47;11.60;1.00
5415;DHT22;2730;51.512;7.504;2024-01-30T10:12:15;11.50;1.00
5415;DHT22;2730;51.512;7.504;2024-01-30T10:14:42;11.50;1.00
5415;DHT22;2730;51.512;7.504;2024-01-30T10:17:10;11.50;1.00
5415;DHT22;2730;51.512;7.504;2024-01-30T10:19:38;11.70;1.00
5415;DHT22;2730;51.512;7.504;2024-01-30T10:22:06;11.80;1.00
5415;DHT22;2730;51.512;7.504;2024-01-30T10:24:34;11.90;1.00
5415;DHT22;2730;51.512;7.504;2024-01-30T10:27:01;12.00;1.00
5415;DHT22;2730;51.512;7.504;2024-01-30T10:29:28;12.00;1.00
5415;DHT22;2730;51.512;7.504;2024-01-30T10:31:59;12.00;1.00
5415;DHT22;2730;51.512;7.504;2024-01-30T10:34:26;12.10;99.90
5415;DHT22;2730;51.512;7.504;2024-01-30T10:36:59;12.20;99.90
5415;DHT22;2730;51.512;7.504;2024-01-30T10:39:32;12.40;99.90
5415;DHT22;2730;51.512;7.504;2024-01-30T10:42:04;13.00;99.90
5415;DHT22;2730;51.512;7.504;2024-01-30T10:44:41;13.60;71.70
5415;DHT22;2730;51.512;7.504;2024-01-30T10:47:12;14.30;1.00
5415;DHT22;2730;51.512;7.504;2024-01-30T10:49:41;14.60;1.00
5415;DHT22;2730;51.512;7.504;2024-01-30T10:52:13;14.70;1.00
5415;DHT22;2730;51.512;7.504;2024-01-30T10:54:44;14.50;1.00
5415;DHT22;2730;51.512;7.504;2024-01-30T10:57:11;14.20;1.00
5415;DHT22;2730;51.512;7.504;2024-01-30T10:59:39;13.80;1.00
5415;DHT22;2730;51.512;7.504;2024-01-30T11:02:06;13.70;1.00
5415;DHT22;2730;51.512;7.504;2024-01-30T11:04:37;13.80;1.00
5415;DHT22;2730;51.512;7.504;2024-01-30T11:07:14;13.70;1.00
5415;DHT22;2730;51.512;7.504;2024-01-30T11:09:49;13.90;1.00
5415;DHT22;2730;51.512;7.504;2024-01-30T11:12:22;14.10;1.00
5415;DHT22;2730;51.512;7.504;2024-01-30T11:15:01;14.30;1.00
5415;DHT22;2730;51.512;7.504;2024-01-30T11:17:40;14.30;1.00
5415;DHT22;2730;51.512;7.504;2024-01-30T11:20:12;14.10;1.00
5415;DHT22;2730;51.512;7.504;2024-01-30T11:22:42;14.00;1.00
5415;DHT22;2730;51.512;7.504;2024-01-30T11:25:15;13.80;1.00
5415;DHT22;2730;51.512;7.504;2024-01-30T11:27:43;13.80;1.00
5415;DHT22;2730;51.512;7.504;2024-01-30T11:30:10;13.80;1.00
5415;DHT22;2730;51.512;7.504;2024-01-30T11:32:37;13.80;1.00
5415;DHT22;2730;51.512;7.504;2024-01-30T11:35:05;13.80;1.00
5415;DHT22;2730;51.512;7.504;2024-01-30T11:37:37;13.60;1.00
5415;DHT22;2730;51.512;7.504;2024-01-30T11:40:05;13.60;1.00
5415;DHT22;2730;51.512;7.504;2024-01-30T11:42:34;13.70;1.00
5415;DHT22;2730;51.512;7.504;2024-01-30T11:45:05;13.60;1.00
5415;DHT22;2730;51.512;7.504;2024-01-30T11:47:34;13.60;1.00
5415;DHT22;2730;51.512;7.504;2024-01-30T11:50:00;13.70;1.00
5415;DHT22;2730;51.512;7.504;2024-01-30T11:52:29;13.70;1.00
5415;DHT22;2730;51.512;7.504;2024-01-30T11:54:56;13.60;1.00
5415;DHT22;2730;51.512;7.504;2024-01-30T11:57:22;13.40;33.40
5415;DHT22;2730;51.512;7.504;2024-01-30T11:59:51;13.50;99.90
5415;DHT22;2730;51.512;7.504;2024-01-30T12:02:19;13.50;99.90
5415;DHT22;2730;51.512;7.504;2024-01-30T12:04:46;13.50;99.90
5415;DHT22;2730;51.512;7.504;2024-01-30T12:07:15;13.40;99.90
5415;DHT22;2730;51.512;7.504;2024-01-30T12:09:42;13.30;99.90
5415;DHT22;2730;51.512;7.504;2024-01-30T12:12:09;13.30;99.90
5415;DHT22;2730;51.512;7.504;2024-01-30T12:14:38;13.30;99.90
5415;DHT22;2730;51.512;7.504;2024-01-30T12:17:07;13.20;99.90
5415;DHT22;2730;51.512;7.504;2024-01-30T12:19:35;13.10;99.90
5415;DHT22;2730;51.512;7.504;2024-01-30T12:22:02;13.10;99.90
5415;DHT22;2730;51.512;7.504;2024-01-30T12:24:29;13.20;99.90
5415;DHT22;2730;51.512;7.504;2024-01-30T12:26:57;13.30;99.90
5415;DHT22;2730;51.512;7.504;2024-01-30T12:29:25;13.40;99.90
5415;DHT22;2730;51.512;7.504;2024-01-30T12:31:53;13.40;99.90
5415;DHT22;2730;51.512;7.504;2024-01-30T12:34:24;13.40;99.90
5415;DHT22;2730;51.512;7.504;2024-01-30T12:36:51;13.30;99.90
5415;DHT22;2730;51.512;7.504;2024-01-30T12:39:19;13.30;99.90
5415;DHT22;2730;51.512;7.504;2024-01-30T12:41:47;13.20;99.90
5415;DHT22;2730;51.512;7.504;2024-01-30T12:44:14;13.20;1.00
5415;DHT22;2730;51.512;7.504;2024-01-30T12:46:44;13.10;1.00
5415;DHT22;2730;51.512;7.504;2024-01-30T12:49:15;13.00;1.00
5415;DHT22;2730;51.512;7.504;2024-01-30T12:51:59;13.00;1.00
5415;DHT22;2730;51.512;7.504;2024-01-30T12:54:32;12.90;1.00
5415;DHT22;2730;51.512;7.504;2024-01-30T12:57:01;12.80;1.00
5415;DHT22;2730;51.512;7.504;2024-01-30T12:59:31;12.70;4.40
5415;DHT22;2730;51.512;7.504;2024-01-30T13:02:00;12.70;41.20
5415;DHT22;2730;51.512;7.504;2024-01-30T13:04:29;12.70;28.30
5415;DHT22;2730;51.512;7.504;2024-01-30T13:07:00;12.60;99.90
5415;DHT22;2730;51.512;7.504;2024-01-30T13:09:27;12.60;99.90
5415;DHT22;2730;51.512;7.504;2024-01-30T13:11:53;12.50;99.90
5415;DHT22;2730;51.512;7.504;2024-01-30T13:14:20;12.50;99.90
5415;DHT22;2730;51.512;7.504;2024-01-30T13:16:47;12.50;99.90
5415;DHT22;2730;51.512;7.504;2024-01-30T13:19:14;12.60;99.90
5415;DHT22;2730;51.512;7.504;2024-01-30T13:21:41;12.60;99.90
5415;DHT22;2730;51.512;7.504;2024-01-30T13:24:09;12.60;99.90
5415;DHT22;2730;51.512;7.504;2024-01-30T13:26:42;12.50;99.90
5415;DHT22;2730;51.512;7.504;2024-01-30T13:29:11;12.60;99.90
5415;DHT22;2730;51.512;7.504;2024-01-30T13:31:37;12.70;99.90
5415;DHT22;2730;51.512;7.504;2024-01-30T13:34:05;12.70;99.90
5415;DHT22;2730;51.512;7.504;2024-01-30T13:36:35;12.60;99.90
5415;DHT22;2730;51.512;7.504;2024-01-30T13:39:03;12.60;99.90
5415;DHT22;2730;51.512;7.504;2024-01-30T13:41:36;12.50;99.90
5415;DHT22;2730;51.512;7.504;2024-01-30T13:44:06;12.50;99.90
5415;DHT22;2730;51.512;7.504;2024-01-30T13:46:32;12.50;99.90
5415;DHT22;2730;51.512;7.504;2024-01-30T13:49:02;12.50;99.90
5415;DHT22;2730;51.512;7.504;2024-01-30T13:51:30;12.30;1.00
5415;DHT22;2730;51.512;7.504;2024-01-30T13:53:56;12.30;1.00
5415;DHT22;2730;51.512;7.504;2024-01-30T13:56:23;12.30;1.00
5415;DHT22;2730;51.512;7.504;2024-01-30T13:58:53;12.30;1.00
5415;DHT22;2730;51.512;7.504;2024-01-30T14:01:21;12.30;1.00
5415;DHT22;2730;51.512;7.504;2024-01-30T14:03:48;12.20;1.00
5415;DHT22;2730;51.512;7.504;2024-01-30T14:06:16;12.10;1.00
5415;DHT22;2730;51.512;7.504;2024-01-30T14:08:43;12.10;41.00
5415;DHT22;2730;51.512;7.504;2024-01-30T14:11:10;12.10;57.70
5415;DHT22;2730;51.512;7.504;2024-01-30T14:13:37;12.20;1.00
5415;DHT22;2730;51.512;7.504;2024-01-30T14:16:06;12.10;99.90
5415;DHT22;2730;51.512;7.504;2024-01-30T14:18:33;12.10;99.90
5415;DHT22;2730;51.512;7.504;2024-01-30T14:21:00;12.10;99.90
5415;DHT22;2730;51.512;7.504;2024-01-30T14:23:28;12.20;99.90
5415;DHT22;2730;51.512;7.504;2024-01-30T14:25:55;12.00;99.90
5415;DHT22;2730;51.512;7.504;2024-01-30T14:28:21;12.10;99.90
5415;DHT22;2730;51.512;7.504;2024-01-30T14:30:49;12.10;99.90
5415;DHT22;2730;51.512;7.504;2024-01-30T14:33:21;12.10;99.90
5415;DHT22;2730;51.512;7.504;2024-01-30T14:35:48;12.00;99.90
5415;DHT22;2730;51.512;7.504;2024-01-30T14:38:14;12.00;99.90
5415;DHT22;2730;51.512;7.504;2024-01-30T14:40:41;12.00;99.90
5415;DHT22;2730;51.512;7.504;2024-01-30T14:43:08;12.00;99.90
5415;DHT22;2730;51.512;7.504;2024-01-30T14:45:35;12.10;51.30
5415;DHT22;2730;51.512;7.504;2024-01-30T14:48:03;12.10;12.60
5415;DHT22;2730;51.512;7.504;2024-01-30T14:50:32;12.10;39.90
5415;DHT22;2730;51.512;7.504;2024-01-30T14:53:00;12.10;27.10
5415;DHT22;2730;51.512;7.504;2024-01-30T14:55:27;12.10;1.00
5415;DHT22;2730;51.512;7.504;2024-01-30T14:57:53;12.10;1.00
5415;DHT22;2730;51.512;7.504;2024-01-30T15:00:21;12.10;1.70
5415;DHT22;2730;51.512;7.504;2024-01-30T15:02:47;12.10;1.00
5415;DHT22;2730;51.512;7.504;2024-01-30T15:05:15;12.00;1.00
5415;DHT22;2730;51.512;7.504;2024-01-30T15:07:43;12.10;9.90
5415;DHT22;2730;51.512;7.504;2024-01-30T15:10:10;12.10;1.00
5415;DHT22;2730;51.512;7.504;2024-01-30T15:12:37;12.10;1.00
5415;DHT22;2730;51.512;7.504;2024-01-30T15:15:04;12.10;1.00
5415;DHT22;2730;51.512;7.504;2024-01-30T15:17:31;12.10;1.00
5415;DHT22;2730;51.512;7.504;2024-01-30T15:19:58;12.10;1.00
5415;DHT22;2730;51.512;7.504;2024-01-30T15:22:26;12.10;1.00
5415;DHT22;2730;51.512;7.504;2024-01-30T15:24:54;12.10;1.00
5415;DHT22;2730;51.512;7.504;2024-01-30T15:27:22;12.00;1.00
5415;DHT22;2730;51.512;7.504;2024-01-30T15:29:50;12.00;1.00
5415;DHT22;2730;51.512;7.504;2024-01-30T15:32:17;11.90;1.00
5415;DHT22;2730;51.512;7.504;2024-01-30T15:34:44;12.00;1.00
5415;DHT22;2730;51.512;7.504;2024-01-30T15:37:12;11.90;1.00
5415;DHT22;2730;51.512;7.504;2024-01-30T15:39:40;11.80;1.00
5415;DHT22;2730;51.512;7.504;2024-01-30T15:42:12;11.90;99.90
5415;DHT22;2730;51.512;7.504;2024-01-30T15:44:39;11.90;99.90
5415;DHT22;2730;51.512;7.504;2024-01-30T15:47:06;11.90;99.90
5415;DHT22;2730;51.512;7.504;2024-01-30T15:49:33;11.90;1.00
5415;DHT22;2730;51.512;7.504;2024-01-30T15:52:00;11.80;1.00
5415;DHT22;2730;51.512;7.504;2024-01-30T15:54:26;11.80;99.90
5415;DHT22;2730;51.512;7.504;2024-01-30T15:56:55;11.70;1.00
5415;DHT22;2730;51.512;7.504;2024-01-30T15:59:23;11.70;1.00
5415;DHT22;2730;51.512;7.504;2024-01-30T16:01:53;11.70;1.00
5415;DHT22;2730;51.512;7.504;2024-01-30T16:04:20;11.60;1.00
5415;DHT22;2730;51.512;7.504;2024-01-30T16:06:49;11.60;99.90
5415;DHT22;2730;51.512;7.504;2024-01-30T16:09:16;11.60;99.90
5415;DHT22;2730;51.512;7.504;2024-01-30T16:11:43;11.60;1.00
5415;DHT22;2730;51.512;7.504;2024-01-30T16:14:11;11.60;99.90
5415;DHT22;2730;51.512;7.504;2024-01-30T16:16:40;11.60;99.90
5415;DHT22;2730;51.512;7.504;2024-01-30T16:19:07;11.50;99.90
5415;DHT22;2730;51.512;7.504;2024-01-30T16:21:34;11.40;99.90
5415;DHT22;2730;51.512;7.504;2024-01-30T16:24:01;11.30;99.90
5415;DHT22;2730;51.512;7.504;2024-01-30T16:26:29;11.20;1.00
5415;DHT22;2730;51.512;7.504;2024-01-30T16:28:57;11.20;1.00